Time;durP1;ratioP1;P1;durP2;ratioP2;P2;SDS_P1;SDS_P2;PMS_P1;PMS_P2;Temp;Humidity;BMP_temperature;BMP_pressure;BME280_temperature;BME280_humidity;BME280_pressure;Samples;Min_cycle;Max_cycle;Signal;HPM_P1;HPM_P2
2022/08/17 00:00:35;;;;;;;84.50;50.38;;;;;;;22.55;61.56;100879.84;5045710;28;20471;-64
2022/08/17 00:03:20;;;;;;;80.03;49.95;;;;;;;22.56;60.44;100881.59;5045793;28;20033;-64
2022/08/17 00:06:03;;;;;;;85.85;50.95;;;;;;;22.54;61.88;100888.72;5050867;28;20033;-65
2022/08/17 00:08:42;;;;;;;86.88;51.50;;;;;;;22.54;61.10;100878.13;5027799;28;20076;-65
2022/08/17 00:11:13;;;;;;;88.80;51.60;;;;;;;22.52;62.05;100867.53;5049453;28;20113;-65
2022/08/17 00:13:43;;;;;;;90.78;53.90;;;;;;;22.48;62.58;100872.94;5031005;28;21000;-65
2022/08/17 00:16:14;;;;;;;94.10;54.80;;;;;;;22.47;62.68;100871.22;5051190;28;20021;-65
2022/08/17 00:18:39;;;;;;;95.72;56.20;;;;;;;22.47;62.69;100860.59;5039584;28;20037;-64
2022/08/17 00:21:07;;;;;;;94.20;56.15;;;;;;;22.44;62.64;100866.84;5044610;28;20420;-65
2022/08/17 00:23:33;;;;;;;100.93;57.92;;;;;;;22.41;63.45;100858.97;5041634;28;20559;-65
2022/08/17 00:25:59;;;;;;;103.10;60.38;;;;;;;22.37;63.39;100851.97;5051046;28;20017;-65
2022/08/17 00:28:25;;;;;;;88.95;53.22;;;;;;;22.36;62.75;100837.84;5039134;28;20044;-65
2022/08/17 00:30:51;;;;;;;88.95;51.60;;;;;;;22.38;63.04;100838.66;5040441;28;20029;-65
2022/08/17 00:33:19;;;;;;;97.13;56.25;;;;;;;22.34;63.31;100838.78;5047695;28;20081;-65
2022/08/17 00:35:46;;;;;;;102.53;57.33;;;;;;;22.36;63.21;100836.94;5047012;28;20014;-65
2022/08/17 00:38:13;;;;;;;91.63;54.65;;;;;;;22.35;63.11;100833.44;5049627;28;20504;-64
2022/08/17 00:40:42;;;;;;;105.13;60.08;;;;;;;22.34;63.35;100828.16;5037966;28;20052;-65
2022/08/17 00:43:20;;;;;;;100.68;59.50;;;;;;;22.34;63.28;100831.69;5052253;28;20476;-66
2022/08/17 00:45:46;;;;;;;105.22;59.25;;;;;;;22.31;64.42;100829.09;5028763;28;20446;-66
2022/08/17 00:48:13;;;;;;;104.28;59.03;;;;;;;22.33;63.21;100837.94;5049208;28;20192;-66
2022/08/17 00:50:45;;;;;;;118.63;60.00;;;;;;;22.29;64.57;100836.22;5051265;28;20033;-66
2022/08/17 00:53:10;;;;;;;110.00;60.22;;;;;;;22.28;64.07;100834.47;5049089;28;20021;-66
2022/08/17 00:55:36;;;;;;;112.47;62.05;;;;;;;22.24;64.12;100833.66;5031752;28;20082;-66
2022/08/17 00:58:04;;;;;;;108.65;60.28;;;;;;;22.25;64.03;100842.50;5023222;28;20024;-66
2022/08/17 01:00:38;;;;;;;116.87;63.20;;;;;;;22.28;63.89;100838.91;5048608;28;20040;-65
2022/08/17 01:03:10;;;;;;;116.82;63.78;;;;;;;22.20;64.08;100841.75;5050653;28;20361;-65
2022/08/17 01:05:37;;;;;;;118.75;64.45;;;;;;;22.19;64.49;100835.56;5048259;28;20171;-66
2022/08/17 01:08:06;;;;;;;124.28;65.05;;;;;;;22.20;64.76;100832.03;5025774;28;20021;-65
2022/08/17 01:10:39;;;;;;;120.90;63.95;;;;;;;22.22;63.98;100830.19;5044757;28;20419;-66
2022/08/17 01:13:06;;;;;;;139.82;72.85;;;;;;;22.18;64.92;100827.66;5046915;28;20299;-66
2022/08/17 01:15:35;;;;;;;129.30;69.13;;;;;;;22.14;65.82;100834.81;5043141;28;20115;-66
2022/08/17 01:18:01;;;;;;;144.82;75.05;;;;;;;22.13;66.18;100822.47;5044391;28;20067;-65
2022/08/17 01:20:26;;;;;;;140.68;71.35;;;;;;;22.14;65.07;100816.22;5047496;28;20104;-66
2022/08/17 01:22:52;;;;;;;134.68;69.90;;;;;;;22.18;64.68;100827.66;5046735;28;20036;-66
2022/08/17 01:25:19;;;;;;;135.02;72.57;;;;;;;22.15;66.16;100817.97;5032636;28;20037;-65
2022/08/17 01:27:45;;;;;;;140.95;71.30;;;;;;;22.16;65.30;100813.53;5048655;28;20036;-65
2022/08/17 01:30:11;;;;;;;134.52;69.07;;;;;;;22.13;65.84;100816.25;5042765;28;20017;-65
2022/08/17 01:32:36;;;;;;;132.90;71.55;;;;;;;22.11;65.40;100804.84;5049724;28;20029;-65
2022/08/17 01:35:04;;;;;;;134.48;70.20;;;;;;;22.10;66.37;100806.63;5038727;28;20033;-65
2022/08/17 01:37:34;;;;;;;139.32;72.25;;;;;;;22.10;66.12;100805.72;5048975;28;20029;-65
2022/08/17 01:40:17;;;;;;;138.20;71.32;;;;;;;22.08;65.93;100802.25;5046790;28;20039;-65
2022/08/17 01:42:47;;;;;;;139.13;72.97;;;;;;;22.10;65.30;100795.13;5037171;28;20546;-65
2022/08/17 01:45:17;;;;;;;147.52;71.75;;;;;;;22.08;65.90;100802.25;5046732;28;20396;-65
2022/08/17 01:47:43;;;;;;;142.10;73.03;;;;;;;22.06;66.19;100805.81;5047229;28;20111;-66
2022/08/17 01:50:15;;;;;;;148.70;74.18;;;;;;;22.05;65.89;100805.84;5047093;28;20174;-66
2022/08/17 01:52:46;;;;;;;148.93;75.35;;;;;;;22.03;66.00;100805.03;5048520;28;20031;-66
2022/08/17 01:55:12;;;;;;;152.55;76.97;;;;;;;22.02;65.82;100801.47;5044550;28;20097;-66
2022/08/17 01:57:37;;;;;;;161.95;81.53;;;;;;;21.99;66.18;100800.72;5046207;28;20061;-66
2022/08/17 02:00:08;;;;;;;150.60;75.43;;;;;;;22.00;65.38;100798.00;5046727;28;20060;-66
2022/08/17 02:02:33;;;;;;;156.05;77.68;;;;;;;21.98;66.24;100797.16;5048832;28;20033;-66
2022/08/17 02:04:58;;;;;;;159.93;78.20;;;;;;;21.97;66.21;100791.91;5046617;28;20482;-66
2022/08/17 02:07:24;;;;;;;151.45;75.75;;;;;;;21.94;67.01;100794.63;5030396;28;20040;-66
2022/08/17 02:09:50;;;;;;;160.65;76.18;;;;;;;21.94;66.33;100784.00;5048869;28;20741;-66
2022/08/17 02:12:15;;;;;;;158.52;76.55;;;;;;;21.91;66.68;100792.91;5047476;28;20029;-66
2022/08/17 02:14:41;;;;;;;159.00;77.15;;;;;;;21.89;66.76;100784.13;5048293;28;20152;-66
2022/08/17 02:17:06;;;;;;;150.27;76.97;;;;;;;21.88;66.30;100787.69;5048122;28;20108;-65
2022/08/17 02:19:32;;;;;;;167.93;78.93;;;;;;;21.86;66.67;100787.72;5048082;28;20476;-65
2022/08/17 02:21:57;;;;;;;156.55;75.50;;;;;;;21.85;66.38;100785.13;5040710;28;20392;-65
2022/08/17 02:24:27;;;;;;;155.07;77.82;;;;;;;21.83;66.83;100786.94;5029429;28;20039;-66
2022/08/17 02:26:53;;;;;;;153.88;74.55;;;;;;;21.80;66.65;100795.84;5028838;28;20388;-66
2022/08/17 02:29:18;;;;;;;155.18;75.43;;;;;;;21.79;66.39;100782.63;5047131;28;20029;-66
2022/08/17 02:31:44;;;;;;;148.00;72.50;;;;;;;21.77;66.10;100792.38;5046935;28;20029;-66
2022/08/17 02:34:09;;;;;;;144.45;72.00;;;;;;;21.75;66.52;100794.19;5045088;28;20369;-64
2022/08/17 02:36:35;;;;;;;151.43;74.90;;;;;;;21.72;66.22;100792.50;5031058;28;20458;-65
2022/08/17 02:39:03;;;;;;;146.88;73.68;;;;;;;21.68;66.13;100786.41;5049396;28;20029;-65
2022/08/17 02:41:29;;;;;;;166.37;77.97;;;;;;;21.68;66.32;100786.41;5043359;28;20045;-65
2022/08/17 02:43:54;;;;;;;163.68;77.47;;;;;;;21.64;66.72;100779.41;5043641;28;20036;-65
2022/08/17 02:46:19;;;;;;;157.05;77.32;;;;;;;21.63;66.79;100774.16;5048201;28;20021;-65
2022/08/17 02:48:45;;;;;;;161.15;75.30;;;;;;;21.59;66.68;100768.03;5050230;28;20059;-65
2022/08/17 02:51:10;;;;;;;153.70;73.65;;;;;;;21.56;66.57;100770.75;5044294;28;20358;-65
2022/08/17 02:53:35;;;;;;;152.15;76.22;;;;;;;21.55;66.93;100774.31;5039558;28;20116;-65
2022/08/17 02:56:01;;;;;;;159.57;75.45;;;;;;;21.50;66.86;100766.44;5040094;28;20387;-65
2022/08/17 02:58:26;;;;;;;153.82;75.28;;;;;;;21.48;66.67;100768.25;5045656;28;20078;-65
2022/08/17 03:00:51;;;;;;;160.00;76.00;;;;;;;21.46;66.29;100772.72;5048695;28;20082;-65
2022/08/17 03:03:19;;;;;;;160.60;74.40;;;;;;;21.41;66.79;100765.78;5047578;28;20116;-64
2022/08/17 03:05:47;;;;;;;173.83;78.23;;;;;;;21.38;66.79;100772.03;5020241;28;20400;-66
2022/08/17 03:08:14;;;;;;;164.70;76.60;;;;;;;21.35;67.36;100765.00;5045243;28;20107;-65
2022/08/17 03:10:40;;;;;;;160.48;74.82;;;;;;;21.33;67.70;100769.50;5043931;28;20540;-65
2022/08/17 03:13:05;;;;;;;169.85;79.15;;;;;;;21.33;66.90;100768.59;5048060;28;20025;-66
2022/08/17 03:15:32;;;;;;;171.02;75.82;;;;;;;21.30;67.48;100764.22;5047622;28;20029;-66
2022/08/17 03:17:59;;;;;;;162.70;78.13;;;;;;;21.28;67.25;100760.75;5046833;28;20135;-65
2022/08/17 03:20:26;;;;;;;157.50;74.25;;;;;;;21.27;67.35;100763.44;5048427;28;20112;-66
2022/08/17 03:22:54;;;;;;;157.70;71.75;;;;;;;21.27;67.02;100764.31;5043718;28;20056;-66
2022/08/17 03:25:41;;;;;;;165.80;74.25;;;;;;;21.25;67.89;100757.31;5047527;28;20027;-66
2022/08/17 03:28:08;;;;;;;162.60;73.40;;;;;;;21.26;67.70;100759.03;5043146;28;20483;-65
2022/08/17 03:30:34;;;;;;;157.27;74.15;;;;;;;21.21;68.27;100759.16;5047157;28;20037;-66
2022/08/17 03:33:03;;;;;;;160.45;74.20;;;;;;;21.22;67.08;100760.91;5046911;28;20048;-66
2022/08/17 03:35:31;;;;;;;159.38;73.95;;;;;;;21.21;67.89;100774.19;5041241;28;20033;-66
2022/08/17 03:37:58;;;;;;;161.40;74.53;;;;;;;21.22;67.97;100770.59;5043331;28;20381;-66
2022/08/17 03:40:24;;;;;;;166.07;75.75;;;;;;;21.18;68.52;100767.16;5048162;28;20286;-67
2022/08/17 03:42:52;;;;;;;164.30;75.30;;;;;;;21.17;68.24;100770.72;5039607;28;20044;-65
2022/08/17 03:56:40;;;;;;;161.30;74.73;;;;;;;21.17;68.71;100765.41;5045486;28;20068;-66
2022/08/17 03:56:42;;;;;;;158.02;72.85;;;;;;;21.16;67.92;100791.06;5045601;28;20094;-66
2022/08/17 03:59:17;;;;;;;155.82;73.43;;;;;;;21.13;68.13;100780.53;5036782;28;20087;-66
2022/08/17 04:01:44;;;;;;;162.43;74.72;;;;;;;21.11;68.99;100784.97;5045004;28;20109;-67
2022/08/17 04:04:11;;;;;;;154.13;73.72;;;;;;;21.13;68.41;100782.28;5039320;28;20029;-66
2022/08/17 04:06:36;;;;;;;148.13;71.20;;;;;;;21.12;69.45;100788.50;5044969;28;20060;-64
2022/08/17 04:09:02;;;;;;;155.20;74.50;;;;;;;21.10;69.87;100788.53;5039979;28;20198;-63
2022/08/17 04:11:27;;;;;;;145.65;69.70;;;;;;;21.10;68.88;100790.28;5042536;28;20021;-64
2022/08/17 04:13:52;;;;;;;151.07;70.60;;;;;;;21.07;69.32;100801.81;5049670;28;20025;-64
2022/08/17 04:16:18;;;;;;;147.80;69.22;;;;;;;21.07;69.36;100814.22;5046408;28;20426;-64
2022/08/17 04:18:43;;;;;;;147.23;70.53;;;;;;;21.04;69.32;100830.19;5046906;28;20028;-65
2022/08/17 04:21:09;;;;;;;141.73;70.68;;;;;;;20.92;71.51;100840.09;5041132;28;20025;-65
2022/08/17 04:23:35;;;;;;;157.07;72.20;;;;;;;20.89;71.30;100841.94;5042379;28;20373;-66
2022/08/17 04:26:01;;;;;;;147.93;71.22;;;;;;;20.88;71.85;100835.75;5043850;28;20404;-66
2022/08/17 04:28:26;;;;;;;143.15;70.45;;;;;;;20.85;73.12;100825.22;5046803;28;20029;-66
2022/08/17 04:30:52;;;;;;;141.90;70.00;;;;;;;20.88;72.30;100819.00;5045063;28;20049;-66
2022/08/17 04:33:22;;;;;;;135.35;69.20;;;;;;;20.90;71.64;100818.09;5046263;28;20033;-66
2022/08/17 04:35:57;;;;;;;131.15;66.90;;;;;;;20.94;72.11;100833.03;5046315;28;20500;-66
2022/08/17 04:38:25;;;;;;;126.93;65.88;;;;;;;20.96;72.08;100843.59;5046705;28;20072;-66
2022/08/17 04:43:38;;;;;;;113.70;60.88;;;;;;;20.98;71.99;100858.50;5047545;28;20047;-65
2022/08/17 04:46:06;;;;;;;112.03;61.75;;;;;;;20.98;72.94;100878.84;5051095;28;20028;-65
2022/08/17 04:48:35;;;;;;;101.70;57.00;;;;;;;21.00;72.35;100874.38;5051409;28;20029;-66
2022/08/17 04:51:02;;;;;;;92.97;55.47;;;;;;;21.02;71.73;100864.66;5049070;28;20323;-66
2022/08/17 04:53:28;;;;;;;85.53;52.28;;;;;;;21.05;70.96;100875.19;5051176;28;20035;-66
2022/08/17 04:55:54;;;;;;;85.30;53.65;;;;;;;21.02;73.23;100876.09;5046794;28;20028;-66
2022/08/17 04:58:20;;;;;;;81.75;50.90;;;;;;;21.05;71.89;100875.19;5043148;28;20047;-66
2022/08/17 05:00:46;;;;;;;79.60;52.67;;;;;;;21.06;72.93;100857.50;5042046;28;20024;-66
2022/08/17 05:03:12;;;;;;;80.10;49.60;;;;;;;21.07;72.81;100848.66;5028615;28;20408;-65
2022/08/17 05:05:42;;;;;;;79.65;51.20;;;;;;;21.06;72.37;100861.03;5046930;28;20083;-64
2022/08/17 05:08:08;;;;;;;72.57;48.45;;;;;;;21.07;72.01;100846.88;5039018;28;20451;-65
2022/08/17 05:10:36;;;;;;;64.75;45.92;;;;;;;21.08;71.94;100856.56;5045245;28;20628;-65
2022/08/17 05:13:11;;;;;;;59.27;45.07;;;;;;;21.09;71.30;100865.41;5042731;28;20503;-66
2022/08/17 05:15:38;;;;;;;56.92;43.60;;;;;;;21.10;70.97;100861.84;5047291;28;20314;-66
2022/08/17 05:18:06;;;;;;;58.20;43.55;;;;;;;21.12;71.31;100857.41;5049857;28;20033;-66
2022/08/17 05:20:33;;;;;;;55.40;42.55;;;;;;;21.10;72.76;100856.53;5042576;28;20144;-66
2022/08/17 05:23:08;;;;;;;55.50;40.65;;;;;;;21.10;71.96;100852.13;5029583;28;20029;-65
2022/08/17 05:25:39;;;;;;;52.38;41.55;;;;;;;21.12;71.86;100857.41;5049320;28;20033;-66
2022/08/17 05:28:06;;;;;;;55.13;39.50;;;;;;;21.11;71.70;100858.28;5040324;28;20028;-66
2022/08/17 05:30:33;;;;;;;50.20;40.03;;;;;;;21.12;71.93;100852.09;5048842;28;20035;-65
2022/08/17 05:33:03;;;;;;;49.70;40.00;;;;;;;21.07;71.95;100849.50;5047437;28;20029;-66
2022/08/17 05:35:30;;;;;;;51.00;39.28;;;;;;;21.06;73.13;100850.44;5048535;28;20045;-66
2022/08/17 05:37:56;;;;;;;45.50;36.55;;;;;;;21.10;71.66;100852.13;5031181;28;20102;-66
2022/08/17 05:40:24;;;;;;;45.90;37.22;;;;;;;21.10;72.96;100853.88;5050094;28;20483;-65
2022/08/17 05:43:02;;;;;;;42.63;35.55;;;;;;;21.11;72.94;100842.41;5040621;28;20045;-66
2022/08/17 05:45:29;;;;;;;43.17;35.35;;;;;;;21.11;72.11;100837.94;5045208;28;20104;-66
2022/08/17 05:47:54;;;;;;;42.50;35.30;;;;;;;21.11;73.07;100837.94;5050280;28;20075;-65
2022/08/17 05:50:30;;;;;;;39.85;34.25;;;;;;;21.12;72.21;100838.84;5048915;28;20040;-66
2022/08/17 05:53:01;;;;;;;37.15;32.75;;;;;;;21.13;72.62;100836.16;5030708;28;20025;-66
2022/08/17 05:56:09;;;;;;;40.33;33.05;;;;;;;21.16;72.13;100840.50;5048527;28;20052;-66
2022/08/17 05:58:55;;;;;;;37.70;32.33;;;;;;;21.16;73.08;100845.81;5027353;28;20143;-65
2022/08/17 06:01:47;;;;;;;36.55;32.28;;;;;;;21.17;71.96;100842.25;5024850;28;20557;-65
2022/08/17 06:04:38;;;;;;;35.78;30.17;;;;;;;21.19;71.93;100846.63;5036114;28;20033;-65
2022/08/17 06:07:20;;;;;;;35.25;31.08;;;;;;;21.19;73.62;100843.13;5049650;28;20029;-65
2022/08/17 06:10:01;;;;;;;32.60;29.10;;;;;;;21.20;73.73;100842.19;5044453;28;20044;-66
2022/08/17 06:12:33;;;;;;;34.13;30.15;;;;;;;21.21;74.19;100843.94;5029644;28;20104;-66
2022/08/17 06:15:08;;;;;;;31.88;27.50;;;;;;;21.23;73.41;100842.13;5047032;28;20112;-66
2022/08/17 06:17:34;;;;;;;29.10;25.73;;;;;;;21.27;74.28;100859.72;5047333;28;20104;-65
2022/08/17 06:20:07;;;;;;;29.15;26.15;;;;;;;21.29;73.88;100865.88;5047090;28;20055;-66
2022/08/17 06:22:37;;;;;;;28.23;25.17;;;;;;;21.29;73.71;100870.28;5043650;28;20051;-66
2022/08/17 06:25:07;;;;;;;26.27;23.55;;;;;;;21.31;73.46;100885.25;5028696;28;20029;-66
2022/08/17 06:27:51;;;;;;;25.83;23.10;;;;;;;21.31;73.20;100887.03;5047516;28;20086;-60
2022/08/17 06:30:23;;;;;;;24.75;22.05;;;;;;;21.33;72.46;100891.41;5029902;28;20052;-60
2022/08/17 06:32:50;;;;;;;26.88;23.70;;;;;;;21.35;73.66;100894.03;5045561;28;20017;-59
2022/08/17 06:35:24;;;;;;;25.48;22.75;;;;;;;21.36;72.46;100895.75;5045422;28;20074;-59
2022/08/17 06:38:16;;;;;;;24.90;22.20;;;;;;;21.39;71.64;100889.53;5043964;28;20031;-59
2022/08/17 06:41:11;;;;;;;25.50;22.80;;;;;;;21.37;72.62;100887.78;5035715;28;20053;-60
2022/08/17 06:43:49;;;;;;;23.95;21.42;;;;;;;21.39;72.41;100884.22;5041349;28;20121;-60
2022/08/17 06:46:23;;;;;;;25.05;21.77;;;;;;;21.37;72.58;100894.88;5036676;28;20481;-60
2022/08/17 06:48:57;;;;;;;25.30;22.63;;;;;;;21.40;73.13;100896.59;5047471;28;20040;-60
2022/08/17 06:51:29;;;;;;;26.08;23.35;;;;;;;21.40;72.76;100893.94;5035603;28;20029;-61
2022/08/17 06:54:04;;;;;;;23.75;21.25;;;;;;;21.41;72.92;100904.50;5038053;28;20039;-60
2022/08/17 06:56:47;;;;;;;24.40;21.77;;;;;;;21.41;72.22;100895.69;5044466;28;20580;-66
2022/08/17 06:59:18;;;;;;;24.17;21.70;;;;;;;21.41;73.12;100901.00;5038223;28;20107;-65
2022/08/17 07:01:46;;;;;;;24.98;22.35;;;;;;;21.42;72.96;100905.38;5033920;28;20036;-65
2022/08/17 07:04:17;;;;;;;22.98;20.55;;;;;;;21.42;73.41;100910.66;5040047;28;20040;-66
2022/08/17 07:06:55;;;;;;;24.90;21.80;;;;;;;21.44;73.22;100911.53;5037786;28;20544;-65
2022/08/17 07:09:26;;;;;;;22.17;19.85;;;;;;;21.46;72.88;100917.66;5045087;28;20090;-65
2022/08/17 07:12:03;;;;;;;24.00;21.40;;;;;;;21.47;72.92;100911.47;5040288;28;20020;-66
2022/08/17 07:14:47;;;;;;;23.52;20.75;;;;;;;21.50;72.08;100920.22;5043650;28;20047;-67
2022/08/17 07:17:16;;;;;;;23.83;21.23;;;;;;;21.51;73.18;100910.53;5019718;28;20025;-66
2022/08/17 07:19:44;;;;;;;23.15;20.75;;;;;;;21.54;73.00;100913.13;5041661;28;20036;-66
2022/08/17 07:22:33;;;;;;;22.87;20.47;;;;;;;21.56;72.71;100915.72;5036575;28;20024;-64
2022/08/17 07:25:06;;;;;;;24.73;22.10;;;;;;;21.53;73.82;100914.88;5041838;28;20347;-65
2022/08/17 07:27:40;;;;;;;23.45;20.70;;;;;;;21.57;73.77;100914.84;5024726;28;20067;-65
2022/08/17 07:30:14;;;;;;;25.55;22.77;;;;;;;21.57;74.39;100918.34;5042347;28;20032;-65
2022/08/17 07:32:56;;;;;;;23.80;20.77;;;;;;;21.58;74.10;100912.16;5037496;28;20016;-65
2022/08/17 07:35:27;;;;;;;24.45;21.80;;;;;;;21.59;72.93;100921.81;5035919;28;20037;-66
2022/08/17 07:38:22;;;;;;;26.23;21.33;;;;;;;21.62;73.07;100927.06;5021189;28;20372;-65
2022/08/17 07:40:56;;;;;;;24.15;21.55;;;;;;;21.62;73.69;100929.72;5035627;28;20787;-64
2022/08/17 07:43:32;;;;;;;24.40;21.20;;;;;;;21.63;74.47;100931.47;5036211;28;20406;-64
2022/08/17 07:48:53;;;;;;;24.80;22.25;;;;;;;21.66;73.19;100936.69;5046393;28;20051;-65
2022/08/17 07:51:31;;;;;;;24.70;22.10;;;;;;;21.68;73.64;100942.88;5044916;28;20100;-65
2022/08/17 07:54:02;;;;;;;26.27;21.88;;;;;;;21.70;73.32;100945.47;5039217;28;20059;-66
2022/08/17 07:56:33;;;;;;;25.00;22.00;;;;;;;21.69;73.44;100947.25;5039231;28;20025;-66
2022/08/17 07:59:12;;;;;;;24.23;21.63;;;;;;;21.73;72.72;100947.22;5041267;28;20031;-65
2022/08/17 08:01:39;;;;;;;24.52;21.90;;;;;;;21.74;73.69;100943.63;5040565;28;20017;-65
2022/08/17 08:04:22;;;;;;;23.73;20.98;;;;;;;21.77;72.41;100948.84;5043841;28;20045;-65
2022/08/17 08:06:54;;;;;;;23.95;21.13;;;;;;;21.78;73.67;100947.97;5043723;28;20232;-65
2022/08/17 08:09:37;;;;;;;23.90;21.40;;;;;;;21.82;72.72;100947.84;5026167;28;20017;-65
2022/08/17 08:12:28;;;;;;;24.77;21.50;;;;;;;21.85;72.95;100953.09;5040619;28;20403;-65
2022/08/17 08:14:58;;;;;;;24.83;21.65;;;;;;;21.86;73.00;100954.00;5040685;28;20017;-66
2022/08/17 08:17:33;;;;;;;24.00;21.40;;;;;;;21.87;72.51;100953.09;5044213;28;20634;-65
2022/08/17 08:19:59;;;;;;;24.33;21.27;;;;;;;21.89;73.38;100948.63;5026949;28;20049;-66
2022/08/17 08:22:33;;;;;;;24.92;22.23;;;;;;;21.91;71.92;100944.13;5049352;28;20017;-66
2022/08/17 08:25:10;;;;;;;25.10;22.30;;;;;;;21.95;72.31;100950.25;5042875;28;20091;-66
2022/08/17 08:28:06;;;;;;;25.92;22.58;;;;;;;21.96;71.77;100942.25;5050648;28;20060;-66
2022/08/17 08:30:39;;;;;;;25.27;22.10;;;;;;;21.98;72.37;100926.31;5037191;28;20306;-66
2022/08/17 08:33:19;;;;;;;28.08;22.90;;;;;;;21.99;72.23;100926.28;5043429;28;20025;-66
2022/08/17 08:36:09;;;;;;;25.90;23.10;;;;;;;22.01;72.42;100915.63;5042891;28;20508;-65
2022/08/17 08:38:41;;;;;;;26.10;23.33;;;;;;;22.00;72.06;100904.16;5046752;28;20033;-66
2022/08/17 08:41:15;;;;;;;25.85;23.00;;;;;;;22.00;71.81;100912.09;5050107;28;20041;-65
2022/08/17 08:44:02;;;;;;;25.77;23.02;;;;;;;22.03;71.13;100930.59;5052257;28;20466;-65
2022/08/17 08:46:52;;;;;;;27.25;23.42;;;;;;;22.04;71.72;100950.94;5050169;28;20123;-66
2022/08/17 08:49:40;;;;;;;26.63;23.75;;;;;;;22.08;71.23;100965.00;5048304;28;20036;-64
2022/08/17 08:52:23;;;;;;;27.38;24.35;;;;;;;22.11;71.67;100975.53;5051147;28;20056;-66
2022/08/17 08:55:13;;;;;;;28.38;24.73;;;;;;;22.14;70.99;100977.25;5051847;28;20510;-66
2022/08/17 08:58:03;;;;;;;25.95;23.35;;;;;;;22.18;71.03;100960.34;5044861;28;20060;-65
2022/08/17 09:00:35;;;;;;;28.45;25.15;;;;;;;22.20;70.80;100959.41;5039667;28;20056;-66
2022/08/17 09:03:37;;;;;;;30.23;25.02;;;;;;;22.23;71.50;100956.69;5051571;28;20523;-66
2022/08/17 09:06:28;;;;;;;27.33;23.85;;;;;;;22.30;71.35;100959.19;5051502;28;20036;-66
2022/08/17 09:09:06;;;;;;;28.73;25.00;;;;;;;22.33;71.80;100952.09;5050474;28;20093;-65
2022/08/17 09:11:42;;;;;;;28.20;25.15;;;;;;;22.36;72.03;100946.69;5045227;28;20064;-65
2022/08/17 09:14:30;;;;;;;29.17;24.75;;;;;;;22.41;71.85;100954.53;5043666;28;20492;-66
2022/08/17 09:17:05;;;;;;;30.20;26.07;;;;;;;22.44;71.10;100956.25;5051286;28;20029;-65
2022/08/17 09:19:41;;;;;;;28.88;25.80;;;;;;;22.46;71.06;100965.03;5052276;28;20041;-66
2022/08/17 09:22:42;;;;;;;29.38;26.27;;;;;;;22.48;70.69;100974.72;5048199;28;20025;-66
2022/08/17 09:25:12;;;;;;;26.27;23.45;;;;;;;22.50;70.93;100974.69;5048514;28;20056;-66
2022/08/17 09:27:46;;;;;;;28.80;25.45;;;;;;;22.51;71.08;100973.78;5049528;28;20118;-66
2022/08/17 09:30:12;;;;;;;29.80;26.60;;;;;;;22.50;70.56;100975.56;5047833;28;20076;-66
2022/08/17 09:32:53;;;;;;;30.98;27.35;;;;;;;22.50;70.85;100978.22;5028300;28;20159;-66
2022/08/17 09:35:33;;;;;;;29.92;26.05;;;;;;;22.52;70.38;100983.47;5031675;28;20047;-65
2022/08/17 09:38:15;;;;;;;29.92;26.45;;;;;;;22.51;69.78;100989.72;5051882;28;20037;-66
2022/08/17 09:41:08;;;;;;;28.98;25.83;;;;;;;22.54;70.16;101006.44;5049430;28;20029;-66
2022/08/17 09:43:52;;;;;;;29.30;26.10;;;;;;;22.54;70.34;101017.06;5050484;28;20037;-65
2022/08/17 09:46:27;;;;;;;29.95;26.67;;;;;;;22.54;69.87;101033.00;5051108;28;20021;-65
2022/08/17 09:49:06;;;;;;;29.20;25.73;;;;;;;22.55;70.93;101044.47;5046482;28;20446;-65
2022/08/17 09:51:42;;;;;;;29.75;26.13;;;;;;;22.56;70.45;101051.56;5049348;28;20153;-66
2022/08/17 09:54:28;;;;;;;28.88;25.83;;;;;;;22.56;70.80;101064.84;5050713;28;20052;-65
2022/08/17 09:57:10;;;;;;;30.50;26.58;;;;;;;22.54;71.84;101059.56;5033566;28;20028;-65
2022/08/17 09:59:43;;;;;;;30.67;27.35;;;;;;;22.49;72.16;101056.16;5051260;28;20039;-66
2022/08/17 10:02:40;;;;;;;30.13;25.88;;;;;;;22.53;71.28;101047.19;5031167;28;20103;-65
2022/08/17 10:05:12;;;;;;;32.05;26.52;;;;;;;22.51;72.46;101042.84;5050319;28;20041;-64
2022/08/17 10:07:50;;;;;;;31.92;27.17;;;;;;;22.48;72.77;101043.78;5048235;28;20043;-64
2022/08/17 10:10:42;;;;;;;28.73;25.73;;;;;;;22.45;73.19;101041.19;5044148;28;20029;-64
2022/08/17 10:13:24;;;;;;;30.48;27.30;;;;;;;22.44;73.38;101041.22;5048575;28;20142;-63
2022/08/17 10:15:57;;;;;;;31.55;28.05;;;;;;;22.38;75.13;101039.59;5040723;28;20488;-62
2022/08/17 10:18:53;;;;;;;33.50;27.88;;;;;;;22.38;75.16;101036.94;5049504;28;20033;-62
2022/08/17 10:27:06;;;;;;;33.22;27.98;;;;;;;22.31;75.80;101046.75;5036009;28;20574;-64
2022/08/17 10:29:40;;;;;;;31.95;28.48;;;;;;;22.27;76.92;101052.19;5046860;28;20056;-63
2022/08/17 10:32:09;;;;;;;32.50;29.02;;;;;;;22.24;77.00;101056.63;5045590;28;20048;-64
2022/08/17 10:34:49;;;;;;;30.70;27.40;;;;;;;22.27;75.73;101053.03;5047083;28;20433;-63
2022/08/17 10:37:35;;;;;;;31.98;27.05;;;;;;;22.28;74.89;101036.22;5043327;28;20435;-64
2022/08/17 10:40:01;;;;;;;36.35;29.98;;;;;;;22.24;77.42;101032.75;5048488;28;20099;-63
2022/08/17 10:42:36;;;;;;;38.42;32.15;;;;;;;22.26;77.95;101022.13;5038427;28;20045;-61
2022/08/17 10:45:15;;;;;;;33.58;29.92;;;;;;;22.22;79.30;101012.47;5038975;28;20035;-61
2022/08/17 10:48:11;;;;;;;33.42;29.70;;;;;;;22.22;77.48;101005.38;5044730;28;20033;-59
2022/08/17 10:50:54;;;;;;;33.70;29.10;;;;;;;22.19;78.43;101004.59;5017029;28;20048;-60
2022/08/17 10:53:32;;;;;;;33.10;29.52;;;;;;;22.18;79.12;100994.88;5046594;28;20025;-61
2022/08/17 10:56:21;;;;;;;32.75;29.25;;;;;;;22.16;78.24;100994.91;5044972;28;20172;-61
2022/08/17 10:58:49;;;;;;;33.65;28.33;;;;;;;22.13;79.35;100984.34;5029614;28;20041;-61
2022/08/17 11:01:16;;;;;;;34.00;29.17;;;;;;;22.11;79.35;100990.59;5040115;28;20028;-60
2022/08/17 11:04:17;;;;;;;32.00;28.55;;;;;;;22.12;78.24;100993.22;5019719;28;20037;-60
2022/08/17 11:07:26;;;;;;;33.78;29.58;;;;;;;22.12;78.59;100992.34;5011061;28;20063;-61
2022/08/17 11:10:06;;;;;;;31.35;28.00;;;;;;;22.09;79.17;100993.28;5037456;28;20124;-61
2022/08/17 11:12:42;;;;;;;32.15;27.80;;;;;;;22.08;79.12;100993.31;5038411;28;21364;-62
2022/08/17 11:15:53;;;;;;;31.65;27.90;;;;;;;22.08;78.27;100996.84;5036686;28;20036;-61
2022/08/17 11:18:21;;;;;;;31.50;28.02;;;;;;;22.06;78.43;101004.84;5037357;28;20036;-60
2022/08/17 11:21:04;;;;;;;31.10;27.75;;;;;;;22.05;78.84;101008.38;5035817;28;20025;-60
2022/08/17 11:24:00;;;;;;;31.52;28.13;;;;;;;22.04;78.81;101011.97;5038502;28;20028;-61
2022/08/17 11:26:29;;;;;;;31.98;28.50;;;;;;;22.00;80.08;101020.91;5042596;28;20078;-60
2022/08/17 11:29:02;;;;;;;32.65;28.88;;;;;;;22.02;79.40;101019.06;5038467;28;20021;-60
2022/08/17 11:31:41;;;;;;;31.77;28.25;;;;;;;22.02;79.37;101029.69;5040978;28;20484;-60
2022/08/17 11:34:25;;;;;;;33.17;28.77;;;;;;;22.02;79.00;101035.00;5042259;28;20249;-60
2022/08/17 11:37:08;;;;;;;32.85;28.55;;;;;;;22.01;79.28;101033.22;5037604;28;20064;-60
2022/08/17 11:40:05;;;;;;;32.72;27.60;;;;;;;22.04;78.59;101053.53;5031715;28;20078;-62
2022/08/17 11:42:38;;;;;;;34.47;28.92;;;;;;;22.04;79.11;101051.78;5040184;28;20068;-60
2022/08/17 11:45:45;;;;;;;31.65;28.27;;;;;;;22.05;78.07;101064.13;5048490;28;20041;-60
2022/08/17 11:53:57;;;;;;;33.50;29.42;;;;;;;22.02;79.14;101061.53;5051947;28;20047;-60
2022/08/17 11:56:44;;;;;;;33.17;29.60;;;;;;;22.04;78.72;101064.16;5041827;28;20033;-60
2022/08/17 11:59:44;;;;;;;34.28;30.48;;;;;;;22.04;79.00;101064.16;5047839;28;20470;-59
2022/08/17 12:02:31;;;;;;;36.15;31.15;;;;;;;22.05;78.98;101069.41;5048568;28;20044;-60